Time;durP1;ratioP1;P1;durP2;ratioP2;P2;SDS_P1;SDS_P2;PMS_P1;PMS_P2;Temp;Humidity;BMP_temperature;BMP_pressure;BME280_temperature;BME280_humidity;BME280_pressure;Samples;Min_cycle;Max_cycle;Signal;HPM_P1;HPM_P2
2022/08/26 00:00:29;;;;;;;;;5.00;4.67;;;;;23.30;64.87;101217.28;5027480;28;45574;-79
2022/08/26 00:02:54;;;;;;;;;3.67;3.67;;;;;23.29;65.01;101218.34;5038989;28;47009;-81
2022/08/26 00:05:20;;;;;;;;;3.67;3.67;;;;;23.30;64.80;101220.00;5022777;28;46413;-81
2022/08/26 00:07:45;;;;;;;;;2.00;2.00;;;;;23.33;65.09;101212.19;5016536;28;45259;-78
2022/08/26 00:10:11;;;;;;;;;3.67;3.67;;;;;23.28;65.33;101209.41;5026802;28;45281;-79
2022/08/26 00:12:37;;;;;;;;;3.67;3.67;;;;;23.23;65.16;101206.63;5018654;28;45617;-79
2022/08/26 00:15:05;;;;;;;;;4.00;4.00;;;;;23.15;65.19;101194.31;5024521;28;47891;-80
2022/08/26 00:17:31;;;;;;;;;4.00;4.00;;;;;23.16;65.98;101195.09;5031278;28;45333;-80
2022/08/26 00:19:56;;;;;;;;;3.67;3.67;;;;;23.16;65.88;101206.78;5023027;28;45437;-79
2022/08/26 00:22:22;;;;;;;;;7.00;6.00;;;;;23.15;65.99;101215.16;5034794;28;47528;-79
2022/08/26 00:24:47;;;;;;;;;6.67;6.67;;;;;23.13;66.37;101212.69;5015858;28;47752;-79
2022/08/26 00:27:12;;;;;;;;;7.00;5.33;;;;;23.17;66.26;101234.72;5028624;28;45353;-79
2022/08/26 00:29:38;;;;;;;;;7.33;7.33;;;;;23.13;66.37;101222.75;5045311;28;45473;-81
2022/08/26 00:32:04;;;;;;;;;7.00;7.00;;;;;23.10;66.12;101212.38;5016703;28;45564;-80
2022/08/26 00:34:29;;;;;;;;;5.67;5.67;;;;;23.10;66.48;101221.31;5025926;28;48162;-82
2022/08/26 00:36:54;;;;;;;;;6.00;4.33;;;;;23.10;66.42;101221.31;5017605;28;45136;-79
2022/08/26 00:39:20;;;;;;;;;5.00;5.00;;;;;23.08;67.03;101229.69;5016270;28;45234;-80
2022/08/26 00:41:46;;;;;;;;;6.00;6.00;;;;;23.05;66.77;101223.97;5028640;28;46802;-80
2022/08/26 00:44:11;;;;;;;;;7.00;5.33;;;;;23.00;67.46;101227.41;5016224;28;45565;-79
2022/08/26 00:46:43;;;;;;;;;6.00;6.00;;;;;23.02;67.65;101233.38;5016016;28;45305;-80
2022/08/26 00:49:21;;;;;;;;;5.00;5.00;;;;;22.99;67.75;101227.66;5020846;28;45367;-79
2022/08/26 00:51:52;;;;;;;;;6.67;6.67;;;;;23.00;67.91;101232.00;5021845;28;45385;-79
2022/08/26 00:54:20;;;;;;;;;8.00;7.00;;;;;22.95;67.66;101233.56;5020675;28;45982;-81
2022/08/26 00:56:56;;;;;;;;;6.33;5.67;;;;;23.00;68.15;101240.97;5031097;28;45329;-80
2022/08/26 00:59:23;;;;;;;;;6.00;5.67;;;;;22.98;67.77;101237.66;5015987;28;45229;-80
2022/08/26 01:01:49;;;;;;;;;7.67;7.67;;;;;22.98;69.02;101237.66;5015797;28;45343;-80
2022/08/26 01:04:18;;;;;;;;;7.67;7.67;;;;;22.95;68.21;101236.28;5013842;28;47935;-80
2022/08/26 01:06:43;;;;;;;;;9.00;9.00;;;;;22.93;68.06;101235.69;5015750;28;45356;-78
2022/08/26 01:09:09;;;;;;;;;7.33;7.33;;;;;22.90;68.41;101238.88;5028190;28;45366;-79
2022/08/26 01:11:35;;;;;;;;;7.00;7.00;;;;;22.90;68.48;101232.66;5015451;28;45345;-79
2022/08/26 01:14:03;;;;;;;;;6.00;6.00;;;;;22.87;68.65;101235.88;5015440;28;45366;-80
2022/08/26 01:16:29;;;;;;;;;8.33;8.33;;;;;22.86;69.22;101234.22;5015468;28;45396;-80
2022/08/26 01:19:00;;;;;;;;;7.00;7.00;;;;;22.78;69.25;101228.13;5027023;28;45341;-82
2022/08/26 01:21:33;;;;;;;;;12.00;9.00;;;;;22.75;69.71;101234.06;5029282;28;45560;-80
2022/08/26 01:23:59;;;;;;;;;9.00;9.00;;;;;22.68;69.47;101223.38;4997804;28;47770;-79
2022/08/26 01:26:32;;;;;;;;;7.33;7.33;;;;;22.74;69.86;101224.28;5029203;28;45285;-79
2022/08/26 01:29:00;;;;;;;;;7.33;7.33;;;;;22.73;70.05;101230.75;5014416;28;45410;-80
2022/08/26 01:31:29;;;;;;;;;4.33;4.33;;;;;22.78;69.89;101241.66;5027699;28;46055;-79
2022/08/26 01:34:13;;;;;;;;;6.00;6.00;;;;;22.79;69.93;101248.75;5020519;28;47310;-79
2022/08/26 01:36:40;;;;;;;;;8.00;8.00;;;;;22.78;69.73;101233.53;5030235;28;45360;-80
2022/08/26 01:39:06;;;;;;;;;9.00;9.00;;;;;22.79;69.37;101235.22;5015354;28;45346;-81
2022/08/26 01:41:33;;;;;;;;;6.00;6.00;;;;;22.83;69.43;101240.94;5014923;28;47196;-79
2022/08/26 01:44:00;;;;;;;;;8.00;8.00;;;;;22.77;69.56;101231.91;5013701;28;47565;-79
2022/08/26 01:46:29;;;;;;;;;6.33;6.33;;;;;22.69;69.75;101230.41;5015028;28;45279;-78
2022/08/26 01:48:57;;;;;;;;;9.67;8.33;;;;;22.70;69.68;101233.97;5032874;28;45239;-80
2022/08/26 01:51:26;;;;;;;;;7.67;7.67;;;;;22.69;70.07;101229.63;5027605;28;45473;-78
2022/08/26 01:53:52;;;;;;;;;9.67;8.67;;;;;22.72;70.60;101250.81;5030255;28;47125;-83
2022/08/26 01:56:18;;;;;;;;;10.33;9.33;;;;;22.64;69.92;101229.50;5025799;28;45253;-79
2022/08/26 01:58:50;;;;;;;;;6.00;6.00;;;;;22.70;69.95;101239.38;5022912;28;45348;-79
2022/08/26 02:01:17;;;;;;;;;8.00;8.00;;;;;22.71;70.45;101243.72;5024815;28;46292;-79
2022/08/26 02:04:19;;;;;;;;;9.00;9.00;;;;;22.65;69.85;101233.84;5023466;28;46356;-79
2022/08/26 02:06:45;;;;;;;;;7.67;7.67;;;;;22.67;70.05;101229.03;5018104;28;45279;-80
2022/08/26 02:09:11;;;;;;;;;8.33;8.33;;;;;22.65;69.90;101233.84;5016704;28;45340;-80
2022/08/26 02:11:38;;;;;;;;;7.33;7.33;;;;;22.71;70.94;101251.84;5017873;28;45310;-79
2022/08/26 02:14:08;;;;;;;;;7.00;7.00;;;;;22.65;70.49;101244.69;5017550;28;45489;-79
2022/08/26 02:16:39;;;;;;;;;9.67;9.67;;;;;22.69;70.69;101268.34;5021062;28;46197;-79
2022/08/26 02:19:08;;;;;;;;;8.67;7.67;;;;;22.67;70.10;101254.25;5016278;28;45385;-78
2022/08/26 02:21:34;;;;;;;;;8.33;8.00;;;;;22.76;70.30;101268.22;5017851;28;45304;-79
2022/08/26 02:24:09;;;;;;;;;5.00;5.00;;;;;22.73;70.62;101262.44;5017637;28;45365;-81
2022/08/26 02:26:35;;;;;;;;;8.00;8.00;;;;;22.66;70.71;101257.19;5030183;28;45366;-79
2022/08/26 02:29:31;;;;;;;;;8.33;7.00;;;;;22.60;70.66;101256.28;5018120;28;45267;-80
2022/08/26 02:31:57;;;;;;;;;9.33;9.33;;;;;22.62;70.02;101262.25;5034919;28;47179;-79
2022/08/26 02:34:30;;;;;;;;;8.00;8.00;;;;;22.64;70.93;101265.56;5032508;28;46526;-78
2022/08/26 02:36:57;;;;;;;;;6.00;6.00;;;;;22.58;71.08;101261.09;5036256;27;45939;-79
2022/08/26 02:39:22;;;;;;;;;9.67;9.67;;;;;22.65;70.24;101259.06;5027833;28;45399;-78
2022/08/26 02:41:47;;;;;;;;;7.67;7.67;;;;;22.64;70.94;101262.03;5030361;28;46272;-78
2022/08/26 02:44:13;;;;;;;;;6.67;6.67;;;;;22.60;70.47;101269.81;5017542;28;45428;-79
2022/08/26 02:46:38;;;;;;;;;9.00;9.00;;;;;22.55;71.52;101273.22;5017613;28;45392;-80
2022/08/26 02:49:04;;;;;;;;;8.33;8.33;;;;;22.42;70.70;101251.84;5035827;28;45328;-78
2022/08/26 02:51:29;;;;;;;;;10.00;10.00;;;;;22.44;71.78;101252.41;5036155;28;47168;-78
2022/08/26 02:53:55;;;;;;;;;9.33;9.33;;;;;22.43;71.39;101265.16;5019814;28;45475;-78
2022/08/26 02:56:21;;;;;;;;;11.33;10.33;;;;;22.41;71.92;101272.69;5017294;28;45373;-78
2022/08/26 02:58:46;;;;;;;;;11.67;11.33;;;;;22.38;71.75;101267.75;5017358;28;45389;-79
2022/08/26 03:01:24;;;;;;;;;12.33;12.33;;;;;22.38;72.69;101278.56;5016960;28;45535;-79
2022/08/26 03:03:50;;;;;;;;;10.33;10.33;;;;;22.36;71.69;101280.72;5015611;28;47960;-78
2022/08/26 03:06:16;;;;;;;;;10.00;10.00;;;;;22.36;71.70;101271.75;5017672;28;45428;-80
2022/08/26 03:08:41;;;;;;;;;14.67;14.67;;;;;22.29;72.83;101269.19;5017245;28;45491;-80
2022/08/26 03:11:07;;;;;;;;;14.33;14.33;;;;;22.29;71.86;101271.88;5034838;28;46091;-79
2022/08/26 03:13:33;;;;;;;;;11.00;11.00;;;;;22.29;72.76;101283.56;5025795;28;45924;-79
2022/08/26 03:16:00;;;;;;;;;11.67;11.33;;;;;22.27;71.87;101271.34;5029608;28;45542;-78
2022/08/26 03:18:26;;;;;;;;;11.67;11.00;;;;;22.26;72.15;101275.91;5025449;28;45359;-80
2022/08/26 03:20:51;;;;;;;;;15.67;13.33;;;;;22.24;72.45;101266.41;5022097;28;45339;-79
2022/08/26 03:23:16;;;;;;;;;12.33;12.33;;;;;22.23;72.34;101268.25;5016967;28;45290;-79
2022/08/26 03:25:41;;;;;;;;;9.00;9.00;;;;;22.27;72.24;101279.44;5026324;28;45303;-80
2022/08/26 03:28:07;;;;;;;;;16.00;14.67;;;;;22.21;73.03;101278.53;5034622;28;45485;-81
2022/08/26 03:30:38;;;;;;;;;14.00;14.00;;;;;22.10;73.13;101260.41;5017078;28;45681;-81
2022/08/26 03:33:05;;;;;;;;;14.33;14.00;;;;;22.11;72.88;101272.88;5029481;28;47597;-80
2022/08/26 03:35:31;;;;;;;;;15.67;14.67;;;;;21.99;72.99;101260.22;5016463;28;45305;-81
2022/08/26 03:37:57;;;;;;;;;13.67;13.00;;;;;22.04;73.28;101265.75;5016870;28;45438;-78
2022/08/26 03:40:23;;;;;;;;;12.67;12.67;;;;;22.05;73.30;101256.56;5016799;28;45297;-79
2022/08/26 03:42:49;;;;;;;;;15.33;14.33;;;;;22.15;73.45;101266.75;5041670;28;47952;-78
2022/08/26 03:45:17;;;;;;;;;13.33;13.33;;;;;22.14;72.84;101265.13;5032200;28;45349;-79
2022/08/26 03:47:43;;;;;;;;;13.00;13.00;;;;;22.10;73.01;101266.66;5017043;28;45373;-79
2022/08/26 03:50:13;;;;;;;;;12.00;12.00;;;;;22.13;73.17;101270.78;5016417;28;45486;-79
2022/08/26 03:52:38;;;;;;;;;18.33;16.67;;;;;22.07;73.06;101253.63;5016631;28;46360;-78
2022/08/26 03:55:05;;;;;;;;;15.00;15.00;;;;;22.12;73.21;101261.00;5028417;28;45450;-78
2022/08/26 03:57:31;;;;;;;;;17.00;14.67;;;;;22.10;72.88;101263.13;5017478;28;45353;-78
2022/08/26 03:59:57;;;;;;;;;14.33;14.00;;;;;22.11;72.59;101262.06;5026448;28;46098;-78
2022/08/26 04:02:22;;;;;;;;;14.67;14.33;;;;;22.11;72.59;101262.06;5019118;28;45445;-78
2022/08/26 04:04:47;;;;;;;;;18.33;16.33;;;;;22.04;72.69;101254.91;5016701;28;45352;-79
2022/08/26 04:07:13;;;;;;;;;19.67;18.67;;;;;21.97;72.95;101259.66;5016554;28;45890;-80
2022/08/26 04:09:38;;;;;;;;;18.67;18.00;;;;;21.92;73.87;101254.13;5021995;28;46238;-78
2022/08/26 04:12:04;;;;;;;;;15.67;15.67;;;;;21.91;73.75;101252.47;5022085;28;46280;-78
2022/08/26 04:14:31;;;;;;;;;17.67;17.67;;;;;21.87;73.46;101252.13;5033627;28;45446;-79
2022/08/26 04:16:56;;;;;;;;;14.33;14.33;;;;;21.94;73.67;101269.03;5025454;28;45475;-78
2022/08/26 04:19:22;;;;;;;;;19.67;19.67;;;;;21.91;73.76;101252.47;5015729;28;45450;-79
2022/08/26 04:21:52;;;;;;;;;18.00;18.00;;;;;21.88;73.73;101259.16;5016333;28;46196;-80
2022/08/26 04:24:20;;;;;;;;;20.67;19.67;;;;;21.81;73.86;101264.72;5015959;28;45373;-78
2022/08/26 04:26:46;;;;;;;;;17.67;17.00;;;;;21.72;73.95;101274.22;5030082;28;45400;-78
2022/08/26 04:29:16;;;;;;;;;16.00;16.00;;;;;21.63;74.57;101267.50;5016306;28;45331;-80
2022/08/26 04:31:41;;;;;;;;;18.33;18.33;;;;;21.52;74.48;101267.28;5028767;28;46997;-79
2022/08/26 04:34:07;;;;;;;;;17.00;17.00;;;;;21.54;75.04;101275.16;5023012;28;45243;-78
2022/08/26 04:36:33;;;;;;;;;19.00;19.00;;;;;21.53;75.68;101279.78;5031392;28;45330;-80
2022/08/26 04:39:00;;;;;;;;;19.00;18.33;;;;;21.49;74.79;101275.06;5021150;28;46486;-81
2022/08/26 04:41:25;;;;;;;;;17.33;16.33;;;;;;;;5023189;28;46528;-78
2022/08/26 04:43:51;;;;;;;;;16.33;16.33;;;;;21.42;75.30;101269.75;5015832;28;45392;-78
2022/08/26 04:46:21;;;;;;;;;24.33;21.67;;;;;21.50;75.01;101280.25;5016171;28;45343;-78
2022/08/26 04:48:47;;;;;;;;;20.67;20.00;;;;;21.42;74.66;101278.69;5014358;28;46515;-79
2022/08/26 04:51:13;;;;;;;;;21.33;20.00;;;;;21.49;75.10;101281.28;5023774;28;47432;-79
2022/08/26 04:53:39;;;;;;;;;22.00;22.00;;;;;21.46;75.12;101278.22;5020713;28;45392;-78
2022/08/26 04:56:04;;;;;;;;;18.00;18.00;;;;;21.44;75.55;101282.00;5015925;28;45389;-78
2022/08/26 04:58:31;;;;;;;;;21.33;20.00;;;;;21.41;75.00;101284.34;5024397;28;45939;-78
2022/08/26 05:00:57;;;;;;;;;25.33;23.67;;;;;21.48;75.10;101292.31;5015636;28;46378;-78
2022/08/26 05:03:23;;;;;;;;;25.33;21.33;;;;;21.43;75.47;101280.34;5014276;28;45683;-79
2022/08/26 05:05:49;;;;;;;;;20.00;19.67;;;;;21.41;75.66;101282.47;5015334;28;45248;-78
2022/08/26 05:08:17;;;;;;;;;24.67;23.67;;;;;21.40;75.33;101274.59;5013962;28;47289;-79
2022/08/26 05:10:48;;;;;;;;;20.67;19.67;;;;;21.45;75.25;101282.81;5026032;28;48185;-79
2022/08/26 05:13:16;;;;;;;;;21.00;20.33;;;;;21.53;75.14;101308.69;5015433;28;45309;-78
2022/08/26 05:15:42;;;;;;;;;17.33;17.33;;;;;21.54;75.56;101296.78;5027928;28;45291;-80
2022/08/26 05:18:09;;;;;;;;;24.67;23.33;;;;;;;;5015569;28;45527;-82
2022/08/26 05:20:45;;;;;;;;;23.00;22.33;;;;;21.51;75.71;101302.66;5015221;28;45420;-80
2022/08/26 05:23:11;;;;;;;;;25.33;23.67;;;;;21.46;75.60;101305.28;5021639;28;46317;-80
2022/08/26 05:25:40;;;;;;;;;24.67;23.00;;;;;21.39;75.97;101297.25;5034659;28;45267;-79
2022/08/26 05:28:07;;;;;;;;;26.00;26.00;;;;;21.44;76.13;101308.22;5023240;28;45474;-80
2022/08/26 05:30:32;;;;;;;;;22.33;21.33;;;;;21.45;76.19;101304.44;5024073;28;47524;-80
2022/08/26 05:32:57;;;;;;;;;23.67;22.67;;;;;21.43;76.02;101301.97;5033753;28;45354;-80
2022/08/26 05:35:27;;;;;;;;;21.50;20.00;;;;;21.50;76.17;101312.69;5018224;28;46010;-80
2022/08/26 05:37:53;;;;;;;;;24.00;24.00;;;;;21.48;75.58;101309.38;5025649;28;46662;-80
2022/08/26 05:40:18;;;;;;;;;26.33;25.67;;;;;21.49;75.91;101312.91;5019978;28;47158;-81
2022/08/26 05:42:46;;;;;;;;;27.67;26.00;;;;;21.52;76.11;101313.25;5033121;27;45549;-81
2022/08/26 05:45:11;;;;;;;;;24.67;24.67;;;;;21.46;76.10;101310.69;5025685;28;45818;-81
2022/08/26 05:47:37;;;;;;;;;26.00;23.33;;;;;21.49;76.00;101321.03;5017972;28;45420;-80
2022/08/26 05:50:04;;;;;;;;;23.33;22.67;;;;;21.60;76.15;101325.59;5018697;28;45297;-80
2022/08/26 05:52:31;;;;;;;;;21.67;19.67;;;;;21.57;75.79;101305.28;5018337;28;45477;-82
2022/08/26 05:54:56;;;;;;;;;23.67;22.33;;;;;21.61;75.96;101321.03;5018521;28;45380;-82
2022/08/26 05:57:22;;;;;;;;;25.00;24.00;;;;;21.65;75.91;101325.75;5028359;28;45909;-79
2022/08/26 05:59:47;;;;;;;;;20.33;20.33;;;;;21.61;75.68;101326.44;5016722;28;47315;-80
2022/08/26 06:02:12;;;;;;;;;26.00;22.67;;;;;21.62;75.56;101328.91;5018495;28;45406;-79
2022/08/26 06:04:37;;;;;;;;;23.33;21.67;;;;;21.65;76.90;101339.25;5017955;28;45357;-81
2022/08/26 06:07:03;;;;;;;;;21.67;21.67;;;;;21.59;76.22;101328.53;5025997;28;47360;-81
2022/08/26 06:09:28;;;;;;;;;22.67;22.67;;;;;21.65;76.03;101335.72;5025157;28;47473;-82
2022/08/26 06:11:54;;;;;;;;;23.33;21.33;;;;;21.66;76.09;101332.78;5032670;28;45773;-81
2022/08/26 06:14:20;;;;;;;;;21.00;21.00;;;;;21.68;76.24;101332.56;5021273;28;45352;-82
2022/08/26 06:16:45;;;;;;;;;22.33;21.67;;;;;21.72;76.40;101332.88;5038702;28;47468;-82
2022/08/26 06:19:14;;;;;;;;;23.00;22.67;;;;;21.82;75.97;101342.09;5031555;28;45396;-82
2022/08/26 06:21:41;;;;;;;;;22.33;22.00;;;;;21.85;75.87;101335.38;5018948;28;45465;-81
2022/08/26 06:26:59;;;;;;;;;23.00;22.00;;;;;21.95;75.79;101334.81;5023105;28;45317;-80
2022/08/26 06:29:27;;;;;;;;;20.67;18.00;;;;;22.04;75.23;101341.50;5021796;28;45485;-79
2022/08/26 06:31:54;;;;;;;;;19.00;17.33;;;;;22.05;75.60;101334.19;5034543;28;45337;-79
2022/08/26 06:34:19;;;;;;;;;20.00;19.00;;;;;22.11;75.04;101333.25;5026502;28;45470;-78
2022/08/26 06:36:46;;;;;;;;;19.00;19.00;;;;;22.18;74.88;101330.44;5026970;28;45467;-78
2022/08/26 06:39:13;;;;;;;;;18.67;18.67;;;;;22.23;75.00;101333.22;5021489;28;47200;-78
2022/08/26 06:41:39;;;;;;;;;23.33;22.33;;;;;22.24;74.82;101323.25;5021563;28;45483;-77
2022/08/26 06:44:06;;;;;;;;;18.33;18.00;;;;;22.29;74.55;101328.75;5041614;28;45287;-78
2022/08/26 06:46:32;;;;;;;;;20.00;19.33;;;;;22.27;74.54;101323.56;5033355;28;45259;-78
2022/08/26 06:48:58;;;;;;;;;23.67;21.00;;;;;22.34;74.32;101331.56;5020656;28;45332;-78
2022/08/26 06:51:27;;;;;;;;;17.33;17.33;;;;;22.34;74.03;101323.44;5025392;28;45364;-78
2022/08/26 06:53:53;;;;;;;;;21.67;21.67;;;;;22.43;73.89;101330.13;5022138;28;45341;-77
2022/08/26 06:56:24;;;;;;;;;19.33;19.33;;;;;22.48;74.02;101324.00;5021705;28;45934;-78
2022/08/26 06:58:50;;;;;;;;;20.00;19.33;;;;;22.48;73.61;101325.88;5018319;27;48414;-78
2022/08/26 07:01:30;;;;;;;;;19.67;18.67;;;;;22.47;73.39;101329.66;5019697;28;45310;-77
2022/08/26 07:03:59;;;;;;;;;17.33;17.33;;;;;22.49;73.24;101339.19;5032159;28;45511;-77
2022/08/26 07:06:26;;;;;;;;;17.67;16.33;;;;;22.48;73.21;101328.59;5017540;28;45436;-77
2022/08/26 07:09:00;;;;;;;;;18.33;18.33;;;;;22.57;73.04;101332.56;5029982;28;48164;-77
2022/08/26 07:11:25;;;;;;;;;21.33;21.33;;;;;22.62;73.54;101331.88;5020096;28;45443;-77
2022/08/26 07:13:50;;;;;;;;;20.67;20.00;;;;;22.64;72.82;101327.84;5018186;28;45409;-77
2022/08/26 07:16:17;;;;;;;;;16.33;16.33;;;;;22.69;72.85;101332.56;5018831;28;45964;-76
2022/08/26 07:18:43;;;;;;;;;21.67;21.67;;;;;22.72;72.96;101331.25;5024902;28;46887;-76
2022/08/26 07:21:13;;;;;;;;;20.67;19.33;;;;;22.73;72.40;101339.13;5025951;28;45404;-76
2022/08/26 07:23:38;;;;;;;;;21.33;19.67;;;;;22.67;72.68;101327.38;5017432;28;45473;-77
2022/08/26 07:26:09;;;;;;;;;20.33;18.67;;;;;22.61;72.45;101328.34;5027601;28;46343;-78
2022/08/26 07:28:35;;;;;;;;;17.00;17.00;;;;;22.60;72.15;101334.00;5025994;28;48483;-78
2022/08/26 07:31:24;;;;;;;;;17.67;16.67;;;;;22.62;71.59;101334.59;5030849;28;45388;-77
2022/08/26 07:33:49;;;;;;;;;19.67;18.67;;;;;22.62;71.99;101329.16;5036703;28;45277;-78
2022/08/26 07:36:16;;;;;;;;;21.00;19.33;;;;;22.65;72.01;101339.50;5019744;28;45311;-78
2022/08/26 07:38:43;;;;;;;;;15.67;14.67;;;;;22.69;72.25;101343.38;5019872;28;46583;-78
2022/08/26 07:41:09;;;;;;;;;13.67;13.00;;;;;22.67;72.20;101334.66;5021289;28;45476;-78
2022/08/26 07:43:35;;;;;;;;;17.67;16.67;;;;;22.69;71.77;101341.47;5026478;28;45451;-78
2022/08/26 07:46:01;;;;;;;;;14.67;14.67;;;;;22.65;71.48;101332.19;5030468;28;46523;-78
2022/08/26 07:48:27;;;;;;;;;14.67;14.67;;;;;22.72;70.67;101342.91;5016964;28;45348;-75
2022/08/26 07:50:52;;;;;;;;;15.33;15.33;;;;;22.81;70.61;101338.72;5016513;28;45311;-76
2022/08/26 07:53:19;;;;;;;;;13.67;13.67;;;;;22.89;70.79;101342.94;5017364;28;45333;-75
2022/08/26 07:55:44;;;;;;;;;10.67;10.67;;;;;22.96;70.30;101348.22;5017454;28;45253;-76
2022/08/26 07:58:10;;;;;;;;;13.00;13.00;;;;;23.01;69.58;101347.50;5017725;28;46208;-77
2022/08/26 08:00:35;;;;;;;;;13.33;13.33;;;;;23.08;69.29;101350.88;5026998;28;45177;-77
2022/08/26 08:03:02;;;;;;;;;14.00;13.00;;;;;23.13;69.14;101344.72;5019974;28;45255;-77
2022/08/26 08:05:31;;;;;;;;;13.67;12.67;;;;;23.18;68.58;101344.78;5016534;28;45457;-78
2022/08/26 08:08:01;;;;;;;;;12.00;12.00;;;;;23.26;68.18;101347.13;5016446;28;45529;-77
2022/08/26 08:10:27;;;;;;;;;12.33;12.33;;;;;23.31;67.68;101347.19;5016375;28;45345;-77
2022/08/26 08:12:53;;;;;;;;;12.67;12.67;;;;;23.32;67.44;101335.25;5016833;28;45381;-76
2022/08/26 08:15:23;;;;;;;;;12.00;10.33;;;;;23.38;66.81;101348.94;5016402;28;46396;-76
2022/08/26 08:17:49;;;;;;;;;12.67;12.67;;;;;23.43;67.29;101343.59;5021980;28;45532;-76
2022/08/26 08:20:15;;;;;;;;;14.67;14.67;;;;;23.51;66.93;101342.38;5033499;28;45276;-76
2022/08/26 08:22:41;;;;;;;;;14.67;13.00;;;;;23.61;66.88;101349.84;5031815;28;45489;-75
2022/08/26 08:25:09;;;;;;;;;13.67;12.67;;;;;23.58;66.28;101337.59;5020678;28;45367;-75
2022/08/26 08:27:36;;;;;;;;;12.33;12.33;;;;;23.62;66.58;101346.06;5025588;28;45435;-75
2022/08/26 08:30:05;;;;;;;;;13.33;11.00;;;;;23.69;66.73;101355.69;5018102;28;45248;-74
2022/08/26 08:32:30;;;;;;;;;10.33;10.33;;;;;23.71;65.91;101333.72;5028317;28;45493;-76
2022/08/26 08:34:57;;;;;;;;;12.33;12.33;;;;;23.78;66.20;101341.69;5033092;28;46862;-77
2022/08/26 08:37:23;;;;;;;;;11.33;11.33;;;;;23.82;65.31;101351.78;5033284;28;47474;-75
2022/08/26 08:39:48;;;;;;;;;13.00;13.00;;;;;23.77;65.60;101340.03;5034083;28;45211;-76
2022/08/26 08:42:35;;;;;;;;;15.67;13.33;;;;;23.77;65.36;101346.31;5029662;28;45382;-77
2022/08/26 08:45:16;;;;;;;;;11.33;11.33;;;;;23.82;65.20;101346.38;5016219;28;45334;-75
2022/08/26 08:47:49;;;;;;;;;15.00;11.67;;;;;23.87;65.22;101333.94;5016042;28;46458;-77
2022/08/26 08:50:35;;;;;;;;;13.00;13.00;;;;;24.00;65.30;101343.63;5029566;28;45392;-77
2022/08/26 08:53:07;;;;;;;;;13.00;12.00;;;;;24.12;65.07;101344.31;5029384;28;45331;-77
2022/08/26 08:55:56;;;;;;;;;11.00;11.00;;;;;24.16;63.64;101345.50;5118326;27;46573;-76
2022/08/26 08:58:33;;;;;;;;;12.67;12.67;;;;;24.16;63.66;101344.69;5035158;28;47229;-76
2022/08/26 09:01:03;;;;;;;;;9.33;9.33;;;;;24.17;63.06;101347.13;5033025;28;46002;-77
2022/08/26 09:03:50;;;;;;;;;11.67;11.67;;;;;24.21;62.72;101348.28;5023957;28;45741;-75
2022/08/26 09:06:19;;;;;;;;;11.00;11.00;;;;;24.21;62.76;101339.28;5023529;28;46146;-76
2022/08/26 09:08:47;;;;;;;;;12.67;11.67;;;;;24.32;61.79;101342.97;5018705;28;45487;-76
2022/08/26 09:11:14;;;;;;;;;12.33;12.33;;;;;24.37;61.68;101340.31;5018862;28;45355;-77
2022/08/26 09:13:46;;;;;;;;;11.67;11.67;;;;;24.51;62.09;101331.78;5030540;28;45291;-76
2022/08/26 09:16:16;;;;;;;;;12.00;11.33;;;;;24.68;61.75;101334.41;5031260;27;45285;-76
2022/08/26 09:19:36;;;;;;;;;66.50;53.00;;;;;24.78;61.28;101337.22;5017083;28;47347;-76
2022/08/26 09:22:01;;;;;;;;;11.33;11.00;;;;;24.77;60.44;101332.03;5009806;28;45604;-77
2022/08/26 09:24:29;;;;;;;;;10.00;10.00;;;;;24.71;60.82;101340.16;5029026;28;45572;-78
2022/08/26 09:26:57;;;;;;;;;13.00;10.67;;;;;24.67;60.55;101346.34;5036455;28;46544;-75
2022/08/26 09:29:25;;;;;;;;;12.00;12.00;;;;;24.67;60.50;101344.47;5026975;28;46119;-77
2022/08/26 09:32:15;;;;;;;;;6.00;6.00;;;;;24.70;60.71;101332.25;5018404;28;45314;-77
2022/08/26 09:35:06;;;;;;;;;9.33;9.33;;;;;24.90;60.09;101339.00;5018562;28;45273;-77
2022/08/26 09:37:34;;;;;;;;;9.33;9.33;;;;;25.01;59.90;101334.47;5018325;28;45476;-78
2022/08/26 09:40:17;;;;;;;;;9.00;9.00;;;;;25.07;59.65;101333.44;5018298;28;46075;-78
2022/08/26 09:42:42;;;;;;;;;9.33;7.67;;;;;25.06;59.27;101329.94;5018937;28;45295;-78
2022/08/26 09:45:09;;;;;;;;;8.00;8.00;;;;;25.06;58.13;101324.50;5018501;28;45374;-77
2022/08/26 09:47:46;;;;;;;;;9.67;8.00;;;;;25.02;58.33;101331.50;5018301;28;45676;-76
2022/08/26 09:50:24;;;;;;;;;8.33;7.33;;;;;25.02;58.26;101326.06;5032929;28;47378;-78
2022/08/26 09:53:22;;;;;;;;;8.67;8.00;;;;;25.18;58.17;101327.03;5018132;28;45619;-77
2022/08/26 09:55:50;;;;;;;;;7.00;7.00;;;;;25.33;57.63;101337.22;5021241;27;45552;-78
2022/08/26 09:58:46;;;;;;;;;7.00;7.00;;;;;25.42;57.65;101323.13;5017873;28;47035;-79
2022/08/26 10:01:33;;;;;;;;;7.00;7.00;;;;;25.45;56.47;101325.31;5010649;28;45330;-77
2022/08/26 10:04:25;;;;;;;;;7.33;6.67;;;;;25.40;56.01;101323.38;5029399;28;45281;-77
2022/08/26 10:06:57;;;;;;;;;9.00;9.00;;;;;25.30;56.46;101323.31;5017906;28;45509;-76
2022/08/26 10:09:24;;;;;;;;;7.67;7.67;;;;;25.20;56.28;101322.13;5027850;28;45371;-78
2022/08/26 10:11:54;;;;;;;;;8.67;8.00;;;;;25.23;55.84;101314.56;5017731;28;47415;-78
2022/08/26 10:14:23;;;;;;;;;8.33;8.33;;;;;25.38;56.38;101322.81;5019312;28;44942;-79
2022/08/26 10:17:04;;;;;;;;;7.67;7.67;;;;;25.59;56.51;101321.09;5022655;28;45342;-76
2022/08/26 10:20:01;;;;;;;;;6.33;6.33;;;;;25.94;54.73;101318.00;5030601;28;47186;-75
2022/08/26 10:22:45;;;;;;;;;8.00;7.00;;;;;26.29;53.79;101318.44;5017559;28;46127;-76
2022/08/26 10:25:15;;;;;;;;;18.67;17.67;;;;;26.52;52.73;101313.63;5022409;28;45590;-76
2022/08/26 10:27:49;;;;;;;;;7.33;7.33;;;;;26.62;51.90;101326.44;5026738;28;45458;-76
2022/08/26 10:30:18;;;;;;;;;6.67;6.67;;;;;26.49;51.11;101312.28;5035515;28;46329;-76
2022/08/26 10:32:46;;;;;;;;;5.67;5.67;;;;;26.37;51.25;101320.69;5025618;28;47348;-77
2022/08/26 10:35:14;;;;;;;;;5.33;5.33;;;;;26.26;50.42;101324.41;5017649;28;45473;-77
2022/08/26 10:37:47;;;;;;;;;3.67;3.67;;;;;26.15;50.72;101318.09;5016757;28;45357;-78
2022/08/26 10:40:46;;;;;;;;;8.67;8.67;;;;;26.09;51.73;101326.25;5019072;28;45563;-77
2022/08/26 10:43:18;;;;;;;;;7.33;7.33;;;;;26.13;51.65;101317.56;5028245;27;45669;-81
2022/08/26 10:45:52;;;;;;;;;8.67;8.67;;;;;26.32;52.61;101307.03;5021258;28;45314;-79
2022/08/26 10:48:24;;;;;;;;;7.00;7.00;;;;;26.57;51.45;101302.72;5018434;28;45475;-79
2022/08/26 10:50:50;;;;;;;;;10.00;8.67;;;;;26.81;51.70;101302.22;5019746;28;45405;-78
2022/08/26 10:53:19;;;;;;;;;8.00;8.00;;;;;26.95;51.63;101297.88;5017548;28;45404;-79
2022/08/26 10:55:55;;;;;;;;;8.00;8.00;;;;;26.99;50.38;101317.25;5024318;28;45285;-78
2022/08/26 10:58:35;;;;;;;;;10.00;10.00;;;;;26.88;49.77;101312.88;5032582;28;45360;-78
2022/08/26 11:04:14;;;;;;;;;13.33;13.33;;;;;26.47;50.44;101292.63;5016604;28;45753;-77
2022/08/26 11:06:40;;;;;;;;;9.67;8.00;;;;;26.49;48.84;101306.00;5034390;28;45324;-77
2022/08/26 11:09:07;;;;;;;;;9.00;9.00;;;;;26.49;48.68;101301.38;5038190;28;45259;-79
2022/08/26 11:11:39;;;;;;;;;6.67;6.67;;;;;26.68;50.19;101301.69;5036788;28;45546;-77
2022/08/26 11:14:29;;;;;;;;;7.33;7.33;;;;;27.04;50.27;101300.91;5035990;28;46321;-78
2022/08/26 11:16:58;;;;;;;;;10.33;10.33;;;;;27.45;49.16;101301.97;5027240;28;45341;-78
2022/08/26 11:19:39;;;;;;;;;8.67;8.67;;;;;27.75;48.59;101302.19;5036759;28;45382;-79
2022/08/26 11:22:25;;;;;;;;;8.67;8.67;;;;;27.80;46.96;101288.53;5036476;28;45308;-78
2022/08/26 11:24:53;;;;;;;;;8.00;8.00;;;;;27.70;47.13;101303.84;5034885;28;47350;-79
2022/08/26 11:27:24;;;;;;;;;9.00;7.33;;;;;27.60;47.11;101298.41;5021975;28;45614;-78
2022/08/26 11:30:11;;;;;;;;;7.00;6.67;;;;;27.53;47.00;101303.31;5034255;28;45416;-76
2022/08/26 11:32:39;;;;;;;;;6.67;6.67;;;;;27.43;46.93;101295.97;5034641;28;45929;-79